sensor_id;sensor_type;location;lat;lon;timestamp;P1;durP1;ratioP1;P2;durP2;ratioP2
47523;SDS011;33253;42.144;25.884;2022-11-15T00:00:08;42.60;;;26.13;;
47523;SDS011;33253;42.144;25.884;2022-11-15T00:02:34;35.40;;;22.27;;
47523;SDS011;33253;42.144;25.884;2022-11-15T00:05:20;28.65;;;18.17;;
47523;SDS011;33253;42.144;25.884;2022-11-15T00:07:45;26.27;;;18.00;;
47523;SDS011;33253;42.144;25.884;2022-11-15T00:10:11;23.67;;;17.15;;
47523;SDS011;33253;42.144;25.884;2022-11-15T00:12:36;23.63;;;16.77;;
47523;SDS011;33253;42.144;25.884;2022-11-15T00:15:02;25.83;;;16.70;;
47523;SDS011;33253;42.144;25.884;2022-11-15T00:17:28;28.00;;;17.80;;
47523;SDS011;33253;42.144;25.884;2022-11-15T00:19:53;26.70;;;16.95;;
47523;SDS011;33253;42.144;25.884;2022-11-15T00:22:18;31.50;;;17.85;;
47523;SDS011;33253;42.144;25.884;2022-11-15T00:24:44;30.55;;;18.45;;
47523;SDS011;33253;42.144;25.884;2022-11-15T00:27:09;43.30;;;18.48;;
47523;SDS011;33253;42.144;25.884;2022-11-15T00:29:34;44.38;;;18.83;;
47523;SDS011;33253;42.144;25.884;2022-11-15T00:32:02;32.38;;;19.55;;
47523;SDS011;33253;42.144;25.884;2022-11-15T00:34:27;32.30;;;18.65;;
47523;SDS011;33253;42.144;25.884;2022-11-15T00:36:53;35.10;;;19.63;;
47523;SDS011;33253;42.144;25.884;2022-11-15T00:39:18;38.33;;;19.13;;
47523;SDS011;33253;42.144;25.884;2022-11-15T00:41:44;42.25;;;18.52;;
47523;SDS011;33253;42.144;25.884;2022-11-15T00:44:09;32.20;;;17.42;;
47523;SDS011;33253;42.144;25.884;2022-11-15T00:46:34;42.53;;;17.88;;
47523;SDS011;33253;42.144;25.884;2022-11-15T00:49:00;31.63;;;18.83;;
47523;SDS011;33253;42.144;25.884;2022-11-15T00:51:25;33.17;;;19.40;;
47523;SDS011;33253;42.144;25.884;2022-11-15T00:53:50;33.03;;;18.80;;
47523;SDS011;33253;42.144;25.884;2022-11-15T00:56:16;32.25;;;18.08;;
47523;SDS011;33253;42.144;25.884;2022-11-15T00:58:41;31.35;;;18.45;;
47523;SDS011;33253;42.144;25.884;2022-11-15T01:01:08;33.42;;;19.88;;
47523;SDS011;33253;42.144;25.884;2022-11-15T01:03:38;37.88;;;20.00;;
47523;SDS011;33253;42.144;25.884;2022-11-15T01:06:04;34.05;;;18.65;;
47523;SDS011;33253;42.144;25.884;2022-11-15T01:08:30;29.20;;;18.90;;
47523;SDS011;33253;42.144;25.884;2022-11-15T01:11:09;29.05;;;20.20;;
47523;SDS011;33253;42.144;25.884;2022-11-15T01:13:36;33.15;;;20.83;;
47523;SDS011;33253;42.144;25.884;2022-11-15T01:16:10;31.83;;;20.13;;
47523;SDS011;33253;42.144;25.884;2022-11-15T01:18:38;29.00;;;20.88;;
47523;SDS011;33253;42.144;25.884;2022-11-15T01:21:08;30.38;;;20.17;;
47523;SDS011;33253;42.144;25.884;2022-11-15T01:23:35;35.38;;;20.45;;
47523;SDS011;33253;42.144;25.884;2022-11-15T01:26:02;33.17;;;20.38;;
47523;SDS011;33253;42.144;25.884;2022-11-15T01:28:29;29.77;;;20.17;;
47523;SDS011;33253;42.144;25.884;2022-11-15T01:31:00;31.27;;;20.80;;
47523;SDS011;33253;42.144;25.884;2022-11-15T01:33:26;28.45;;;20.15;;
47523;SDS011;33253;42.144;25.884;2022-11-15T01:35:53;30.90;;;20.58;;
47523;SDS011;33253;42.144;25.884;2022-11-15T01:38:18;28.85;;;20.08;;
47523;SDS011;33253;42.144;25.884;2022-11-15T01:40:44;29.55;;;20.30;;
47523;SDS011;33253;42.144;25.884;2022-11-15T01:46:06;30.85;;;21.10;;
47523;SDS011;33253;42.144;25.884;2022-11-15T01:48:46;29.05;;;19.88;;
47523;SDS011;33253;42.144;25.884;2022-11-15T01:51:14;30.13;;;20.42;;
47523;SDS011;33253;42.144;25.884;2022-11-15T01:53:42;29.05;;;20.55;;
47523;SDS011;33253;42.144;25.884;2022-11-15T01:56:13;31.85;;;22.75;;
47523;SDS011;33253;42.144;25.884;2022-11-15T01:58:45;29.38;;;20.60;;
47523;SDS011;33253;42.144;25.884;2022-11-15T02:01:12;27.65;;;20.02;;
47523;SDS011;33253;42.144;25.884;2022-11-15T02:06:34;27.40;;;18.95;;
47523;SDS011;33253;42.144;25.884;2022-11-15T02:09:00;32.65;;;21.80;;
47523;SDS011;33253;42.144;25.884;2022-11-15T02:11:26;26.98;;;20.23;;
47523;SDS011;33253;42.144;25.884;2022-11-15T02:13:52;31.10;;;21.33;;
47523;SDS011;33253;42.144;25.884;2022-11-15T02:16:35;28.92;;;19.95;;
47523;SDS011;33253;42.144;25.884;2022-11-15T02:32:47;24.88;;;18.25;;
47523;SDS011;33253;42.144;25.884;2022-11-15T02:38:05;29.30;;;19.27;;
47523;SDS011;33253;42.144;25.884;2022-11-15T02:40:58;28.05;;;19.15;;
47523;SDS011;33253;42.144;25.884;2022-11-15T02:43:29;30.33;;;20.10;;
47523;SDS011;33253;42.144;25.884;2022-11-15T02:46:39;40.42;;;25.50;;
47523;SDS011;33253;42.144;25.884;2022-11-15T02:49:28;29.17;;;19.60;;
47523;SDS011;33253;42.144;25.884;2022-11-15T02:51:57;30.70;;;19.02;;
47523;SDS011;33253;42.144;25.884;2022-11-15T02:54:24;31.35;;;19.67;;
47523;SDS011;33253;42.144;25.884;2022-11-15T02:56:53;27.08;;;18.13;;
47523;SDS011;33253;42.144;25.884;2022-11-15T02:59:29;31.17;;;19.60;;
47523;SDS011;33253;42.144;25.884;2022-11-15T03:07:07;28.38;;;18.25;;
47523;SDS011;33253;42.144;25.884;2022-11-15T03:17:52;30.15;;;19.30;;
47523;SDS011;33253;42.144;25.884;2022-11-15T03:20:19;28.08;;;19.17;;
47523;SDS011;33253;42.144;25.884;2022-11-15T03:22:45;29.10;;;20.25;;
47523;SDS011;33253;42.144;25.884;2022-11-15T03:25:13;29.08;;;19.80;;
47523;SDS011;33253;42.144;25.884;2022-11-15T03:27:45;31.08;;;19.95;;
47523;SDS011;33253;42.144;25.884;2022-11-15T03:30:15;29.98;;;18.50;;
47523;SDS011;33253;42.144;25.884;2022-11-15T03:32:44;29.00;;;18.67;;
47523;SDS011;33253;42.144;25.884;2022-11-15T03:35:21;27.02;;;17.48;;
47523;SDS011;33253;42.144;25.884;2022-11-15T03:37:58;33.88;;;21.85;;
47523;SDS011;33253;42.144;25.884;2022-11-15T03:40:36;35.97;;;21.70;;
47523;SDS011;33253;42.144;25.884;2022-11-15T03:45:36;43.10;;;23.75;;
47523;SDS011;33253;42.144;25.884;2022-11-15T03:50:39;50.03;;;24.33;;
47523;SDS011;33253;42.144;25.884;2022-11-15T03:53:07;44.05;;;24.13;;
47523;SDS011;33253;42.144;25.884;2022-11-15T03:55:33;55.47;;;25.95;;
47523;SDS011;33253;42.144;25.884;2022-11-15T03:57:59;53.60;;;24.10;;
47523;SDS011;33253;42.144;25.884;2022-11-15T04:00:26;52.65;;;26.08;;
47523;SDS011;33253;42.144;25.884;2022-11-15T04:02:52;52.60;;;27.50;;
47523;SDS011;33253;42.144;25.884;2022-11-15T04:05:17;58.90;;;28.70;;
47523;SDS011;33253;42.144;25.884;2022-11-15T04:07:43;54.92;;;28.95;;
47523;SDS011;33253;42.144;25.884;2022-11-15T04:10:09;52.70;;;27.70;;
47523;SDS011;33253;42.144;25.884;2022-11-15T04:12:37;53.85;;;27.60;;
47523;SDS011;33253;42.144;25.884;2022-11-15T04:20:06;51.13;;;26.83;;
47523;SDS011;33253;42.144;25.884;2022-11-15T04:23:03;49.53;;;26.20;;
47523;SDS011;33253;42.144;25.884;2022-11-15T04:25:54;47.17;;;25.52;;
47523;SDS011;33253;42.144;25.884;2022-11-15T04:28:20;50.45;;;26.75;;
47523;SDS011;33253;42.144;25.884;2022-11-15T04:30:46;52.92;;;26.63;;
47523;SDS011;33253;42.144;25.884;2022-11-15T04:33:12;54.90;;;27.30;;
47523;SDS011;33253;42.144;25.884;2022-11-15T04:35:37;48.10;;;26.55;;
47523;SDS011;33253;42.144;25.884;2022-11-15T04:38:04;50.08;;;28.10;;
47523;SDS011;33253;42.144;25.884;2022-11-15T04:40:31;52.15;;;27.38;;
47523;SDS011;33253;42.144;25.884;2022-11-15T04:42:56;48.40;;;26.80;;
47523;SDS011;33253;42.144;25.884;2022-11-15T04:45:23;50.33;;;27.15;;
47523;SDS011;33253;42.144;25.884;2022-11-15T04:47:49;52.80;;;27.50;;
47523;SDS011;33253;42.144;25.884;2022-11-15T04:50:15;49.85;;;27.15;;
47523;SDS011;33253;42.144;25.884;2022-11-15T04:52:41;52.42;;;27.92;;
47523;SDS011;33253;42.144;25.884;2022-11-15T04:55:11;49.75;;;27.55;;
47523;SDS011;33253;42.144;25.884;2022-11-15T04:57:37;51.63;;;28.77;;
47523;SDS011;33253;42.144;25.884;2022-11-15T05:00:06;56.92;;;28.58;;
47523;SDS011;33253;42.144;25.884;2022-11-15T05:02:36;56.28;;;28.75;;
47523;SDS011;33253;42.144;25.884;2022-11-15T05:05:20;56.35;;;29.15;;
47523;SDS011;33253;42.144;25.884;2022-11-15T05:07:46;57.92;;;29.13;;
47523;SDS011;33253;42.144;25.884;2022-11-15T05:10:12;55.33;;;29.27;;
47523;SDS011;33253;42.144;25.884;2022-11-15T05:12:37;59.10;;;29.77;;
47523;SDS011;33253;42.144;25.884;2022-11-15T05:15:03;55.35;;;27.10;;
47523;SDS011;33253;42.144;25.884;2022-11-15T05:17:29;58.83;;;29.33;;
47523;SDS011;33253;42.144;25.884;2022-11-15T05:19:54;54.20;;;28.35;;
47523;SDS011;33253;42.144;25.884;2022-11-15T05:22:20;56.17;;;28.95;;
47523;SDS011;33253;42.144;25.884;2022-11-15T05:24:46;60.63;;;28.67;;
47523;SDS011;33253;42.144;25.884;2022-11-15T05:27:11;61.50;;;29.35;;
47523;SDS011;33253;42.144;25.884;2022-11-15T05:29:37;60.78;;;31.55;;
47523;SDS011;33253;42.144;25.884;2022-11-15T05:32:05;63.45;;;29.75;;
47523;SDS011;33253;42.144;25.884;2022-11-15T05:34:33;55.55;;;29.55;;
47523;SDS011;33253;42.144;25.884;2022-11-15T05:36:58;58.28;;;28.60;;
47523;SDS011;33253;42.144;25.884;2022-11-15T05:39:24;63.67;;;30.95;;
47523;SDS011;33253;42.144;25.884;2022-11-15T05:41:59;64.45;;;29.75;;
47523;SDS011;33253;42.144;25.884;2022-11-15T05:44:36;59.45;;;30.38;;
47523;SDS011;33253;42.144;25.884;2022-11-15T05:47:06;63.53;;;31.42;;
47523;SDS011;33253;42.144;25.884;2022-11-15T05:49:35;66.30;;;30.98;;
47523;SDS011;33253;42.144;25.884;2022-11-15T05:52:04;68.38;;;31.85;;
47523;SDS011;33253;42.144;25.884;2022-11-15T05:54:32;72.00;;;35.40;;
47523;SDS011;33253;42.144;25.884;2022-11-15T05:56:59;80.60;;;41.08;;
47523;SDS011;33253;42.144;25.884;2022-11-15T05:59:25;72.07;;;34.67;;
47523;SDS011;33253;42.144;25.884;2022-11-15T06:01:53;69.60;;;32.75;;
47523;SDS011;33253;42.144;25.884;2022-11-15T06:04:18;73.63;;;31.52;;
47523;SDS011;33253;42.144;25.884;2022-11-15T06:06:43;69.70;;;31.55;;
47523;SDS011;33253;42.144;25.884;2022-11-15T06:09:09;73.80;;;33.72;;
47523;SDS011;33253;42.144;25.884;2022-11-15T06:11:34;71.60;;;32.72;;
47523;SDS011;33253;42.144;25.884;2022-11-15T06:14:00;73.00;;;35.28;;
47523;SDS011;33253;42.144;25.884;2022-11-15T06:16:25;74.13;;;33.80;;
47523;SDS011;33253;42.144;25.884;2022-11-15T06:18:51;72.72;;;31.98;;
47523;SDS011;33253;42.144;25.884;2022-11-15T06:21:17;76.70;;;32.72;;
47523;SDS011;33253;42.144;25.884;2022-11-15T06:23:42;77.28;;;33.50;;
47523;SDS011;33253;42.144;25.884;2022-11-15T06:26:08;78.82;;;33.25;;
47523;SDS011;33253;42.144;25.884;2022-11-15T06:28:33;78.20;;;34.28;;
47523;SDS011;33253;42.144;25.884;2022-11-15T06:31:05;73.53;;;33.30;;
47523;SDS011;33253;42.144;25.884;2022-11-15T06:33:32;76.97;;;33.28;;
47523;SDS011;33253;42.144;25.884;2022-11-15T06:36:01;79.60;;;32.85;;
47523;SDS011;33253;42.144;25.884;2022-11-15T06:38:31;83.15;;;33.45;;
47523;SDS011;33253;42.144;25.884;2022-11-15T06:41:01;91.43;;;34.90;;
47523;SDS011;33253;42.144;25.884;2022-11-15T06:43:29;87.70;;;34.42;;
47523;SDS011;33253;42.144;25.884;2022-11-15T06:45:54;85.82;;;35.28;;
47523;SDS011;33253;42.144;25.884;2022-11-15T06:48:20;85.65;;;35.88;;
47523;SDS011;33253;42.144;25.884;2022-11-15T06:50:50;94.13;;;36.13;;
47523;SDS011;33253;42.144;25.884;2022-11-15T06:53:17;86.95;;;33.70;;
47523;SDS011;33253;42.144;25.884;2022-11-15T06:55:42;95.35;;;37.72;;
47523;SDS011;33253;42.144;25.884;2022-11-15T06:58:08;103.18;;;44.38;;
47523;SDS011;33253;42.144;25.884;2022-11-15T07:00:34;94.20;;;38.38;;
47523;SDS011;33253;42.144;25.884;2022-11-15T07:02:59;89.95;;;36.67;;
47523;SDS011;33253;42.144;25.884;2022-11-15T07:05:25;83.45;;;31.90;;
47523;SDS011;33253;42.144;25.884;2022-11-15T07:07:55;95.88;;;36.55;;
47523;SDS011;33253;42.144;25.884;2022-11-15T07:10:22;102.35;;;37.25;;
47523;SDS011;33253;42.144;25.884;2022-11-15T07:12:52;110.85;;;39.63;;
47523;SDS011;33253;42.144;25.884;2022-11-15T07:15:20;97.30;;;37.03;;
47523;SDS011;33253;42.144;25.884;2022-11-15T07:17:46;105.45;;;36.65;;
47523;SDS011;33253;42.144;25.884;2022-11-15T07:20:12;104.85;;;37.30;;
47523;SDS011;33253;42.144;25.884;2022-11-15T07:22:39;90.38;;;35.95;;
47523;SDS011;33253;42.144;25.884;2022-11-15T07:25:05;96.07;;;35.42;;
47523;SDS011;33253;42.144;25.884;2022-11-15T07:27:31;95.40;;;36.55;;
47523;SDS011;33253;42.144;25.884;2022-11-15T07:29:56;106.63;;;39.33;;
47523;SDS011;33253;42.144;25.884;2022-11-15T07:32:22;103.80;;;37.30;;
47523;SDS011;33253;42.144;25.884;2022-11-15T07:34:47;105.15;;;38.00;;
47523;SDS011;33253;42.144;25.884;2022-11-15T07:37:12;101.30;;;38.42;;
47523;SDS011;33253;42.144;25.884;2022-11-15T07:39:38;107.85;;;40.20;;
47523;SDS011;33253;42.144;25.884;2022-11-15T07:42:03;92.53;;;35.95;;
47523;SDS011;33253;42.144;25.884;2022-11-15T07:44:48;97.00;;;37.15;;
47523;SDS011;33253;42.144;25.884;2022-11-15T07:47:13;102.68;;;40.50;;
47523;SDS011;33253;42.144;25.884;2022-11-15T07:49:39;101.15;;;39.08;;
47523;SDS011;33253;42.144;25.884;2022-11-15T07:52:04;107.50;;;38.53;;
47523;SDS011;33253;42.144;25.884;2022-11-15T07:54:30;96.28;;;38.13;;
47523;SDS011;33253;42.144;25.884;2022-11-15T07:56:55;91.97;;;38.95;;
47523;SDS011;33253;42.144;25.884;2022-11-15T07:59:20;88.88;;;35.85;;
47523;SDS011;33253;42.144;25.884;2022-11-15T08:01:46;100.25;;;39.50;;
47523;SDS011;33253;42.144;25.884;2022-11-15T08:04:11;100.70;;;41.47;;
47523;SDS011;33253;42.144;25.884;2022-11-15T08:06:37;101.57;;;41.22;;
47523;SDS011;33253;42.144;25.884;2022-11-15T08:09:04;97.97;;;40.47;;
47523;SDS011;33253;42.144;25.884;2022-11-15T08:11:29;92.45;;;37.67;;
47523;SDS011;33253;42.144;25.884;2022-11-15T08:13:55;87.28;;;34.63;;
47523;SDS011;33253;42.144;25.884;2022-11-15T08:16:20;87.03;;;34.90;;
47523;SDS011;33253;42.144;25.884;2022-11-15T08:18:46;83.95;;;33.97;;
47523;SDS011;33253;42.144;25.884;2022-11-15T08:21:13;82.05;;;34.67;;
47523;SDS011;33253;42.144;25.884;2022-11-15T08:23:42;91.38;;;35.58;;
47523;SDS011;33253;42.144;25.884;2022-11-15T12:14:00;62.88;;;35.47;;
47523;SDS011;33253;42.144;25.884;2022-11-15T12:16:29;66.93;;;39.90;;
47523;SDS011;33253;42.144;25.884;2022-11-15T12:19:01;44.63;;;30.33;;
47523;SDS011;33253;42.144;25.884;2022-11-15T12:24:21;54.08;;;34.80;;
47523;SDS011;33253;42.144;25.884;2022-11-15T12:26:57;41.55;;;29.92;;
47523;SDS011;33253;42.144;25.884;2022-11-15T12:32:04;40.83;;;27.80;;
47523;SDS011;33253;42.144;25.884;2022-11-15T12:34:38;37.63;;;29.52;;
47523;SDS011;33253;42.144;25.884;2022-11-15T12:40:22;32.40;;;23.60;;
47523;SDS011;33253;42.144;25.884;2022-11-15T12:45:33;36.15;;;27.85;;
47523;SDS011;33253;42.144;25.884;2022-11-15T13:06:40;32.65;;;26.13;;
47523;SDS011;33253;42.144;25.884;2022-11-15T13:11:57;27.10;;;23.10;;
47523;SDS011;33253;42.144;25.884;2022-11-15T13:14:45;25.52;;;22.30;;
47523;SDS011;33253;42.144;25.884;2022-11-15T13:19:52;27.40;;;21.83;;
47523;SDS011;33253;42.144;25.884;2022-11-15T13:22:39;36.95;;;28.65;;
47523;SDS011;33253;42.144;25.884;2022-11-15T13:30:52;30.80;;;23.75;;
47523;SDS011;33253;42.144;25.884;2022-11-15T13:33:33;34.53;;;27.98;;
47523;SDS011;33253;42.144;25.884;2022-11-15T13:36:02;37.85;;;29.08;;
47523;SDS011;33253;42.144;25.884;2022-11-15T13:38:32;41.75;;;31.25;;
47523;SDS011;33253;42.144;25.884;2022-11-15T13:41:10;48.20;;;33.05;;
47523;SDS011;33253;42.144;25.884;2022-11-15T13:43:41;38.40;;;29.48;;
47523;SDS011;33253;42.144;25.884;2022-11-15T13:46:11;38.45;;;28.17;;
47523;SDS011;33253;42.144;25.884;2022-11-15T13:48:43;32.22;;;26.85;;
47523;SDS011;33253;42.144;25.884;2022-11-15T13:53:52;32.90;;;27.67;;
47523;SDS011;33253;42.144;25.884;2022-11-15T13:56:30;35.03;;;27.60;;
47523;SDS011;33253;42.144;25.884;2022-11-15T13:58:58;35.08;;;28.10;;
47523;SDS011;33253;42.144;25.884;2022-11-15T14:01:25;35.28;;;28.25;;
47523;SDS011;33253;42.144;25.884;2022-11-15T14:03:57;32.75;;;25.83;;
47523;SDS011;33253;42.144;25.884;2022-11-15T14:06:24;31.17;;;25.00;;
47523;SDS011;33253;42.144;25.884;2022-11-15T14:09:15;30.98;;;23.67;;
47523;SDS011;33253;42.144;25.884;2022-11-15T14:11:51;32.25;;;27.13;;
47523;SDS011;33253;42.144;25.884;2022-11-15T14:14:19;34.65;;;27.73;;
47523;SDS011;33253;42.144;25.884;2022-11-15T14:16:51;34.72;;;27.65;;
47523;SDS011;33253;42.144;25.884;2022-11-15T14:24:46;50.35;;;34.38;;
47523;SDS011;33253;42.144;25.884;2022-11-15T14:27:32;43.53;;;33.58;;
47523;SDS011;33253;42.144;25.884;2022-11-15T14:29:59;51.72;;;37.25;;
47523;SDS011;33253;42.144;25.884;2022-11-15T14:32:26;50.88;;;37.40;;
47523;SDS011;33253;42.144;25.884;2022-11-15T14:34:54;54.55;;;38.45;;
47523;SDS011;33253;42.144;25.884;2022-11-15T14:37:25;43.10;;;32.63;;
47523;SDS011;33253;42.144;25.884;2022-11-15T14:39:53;50.40;;;37.22;;
47523;SDS011;33253;42.144;25.884;2022-11-15T14:42:20;49.47;;;34.15;;
47523;SDS011;33253;42.144;25.884;2022-11-15T14:44:47;56.92;;;38.35;;
47523;SDS011;33253;42.144;25.884;2022-11-15T14:47:13;50.47;;;37.60;;
47523;SDS011;33253;42.144;25.884;2022-11-15T14:49:38;50.42;;;39.67;;
47523;SDS011;33253;42.144;25.884;2022-11-15T14:52:07;51.35;;;39.35;;
47523;SDS011;33253;42.144;25.884;2022-11-15T14:54:41;45.10;;;32.10;;
47523;SDS011;33253;42.144;25.884;2022-11-15T14:57:06;46.60;;;33.92;;
47523;SDS011;33253;42.144;25.884;2022-11-15T14:59:32;51.83;;;37.60;;
47523;SDS011;33253;42.144;25.884;2022-11-15T15:01:57;47.80;;;36.08;;
47523;SDS011;33253;42.144;25.884;2022-11-15T15:04:24;45.13;;;32.75;;
47523;SDS011;33253;42.144;25.884;2022-11-15T15:06:49;43.15;;;32.15;;
47523;SDS011;33253;42.144;25.884;2022-11-15T15:09:15;44.28;;;34.50;;
47523;SDS011;33253;42.144;25.884;2022-11-15T15:11:40;37.83;;;29.35;;
47523;SDS011;33253;42.144;25.884;2022-11-15T15:14:05;60.05;;;45.95;;
47523;SDS011;33253;42.144;25.884;2022-11-15T15:16:31;55.83;;;40.85;;
47523;SDS011;33253;42.144;25.884;2022-11-15T15:18:56;45.65;;;34.50;;
47523;SDS011;33253;42.144;25.884;2022-11-15T15:21:23;43.97;;;31.63;;
47523;SDS011;33253;42.144;25.884;2022-11-15T15:23:50;36.55;;;28.67;;
47523;SDS011;33253;42.144;25.884;2022-11-15T15:26:17;40.72;;;31.58;;
47523;SDS011;33253;42.144;25.884;2022-11-15T15:28:44;41.95;;;31.63;;
47523;SDS011;33253;42.144;25.884;2022-11-15T15:31:09;41.85;;;32.50;;
47523;SDS011;33253;42.144;25.884;2022-11-15T15:33:37;44.03;;;31.75;;
47523;SDS011;33253;42.144;25.884;2022-11-15T15:36:02;42.65;;;33.78;;
47523;SDS011;33253;42.144;25.884;2022-11-15T15:38:28;42.55;;;33.47;;
47523;SDS011;33253;42.144;25.884;2022-11-15T15:40:54;44.00;;;33.72;;
47523;SDS011;33253;42.144;25.884;2022-11-15T15:43:20;44.75;;;33.40;;
47523;SDS011;33253;42.144;25.884;2022-11-15T15:45:45;50.15;;;35.28;;
47523;SDS011;33253;42.144;25.884;2022-11-15T15:48:12;43.95;;;33.72;;
47523;SDS011;33253;42.144;25.884;2022-11-15T15:50:38;46.33;;;35.63;;
47523;SDS011;33253;42.144;25.884;2022-11-15T15:53:04;46.80;;;35.88;;
47523;SDS011;33253;42.144;25.884;2022-11-15T15:55:30;44.60;;;35.55;;
47523;SDS011;33253;42.144;25.884;2022-11-15T15:57:56;48.47;;;34.35;;
47523;SDS011;33253;42.144;25.884;2022-11-15T16:00:21;45.47;;;35.17;;
47523;SDS011;33253;42.144;25.884;2022-11-15T16:02:49;49.30;;;37.85;;
47523;SDS011;33253;42.144;25.884;2022-11-15T16:05:15;48.92;;;37.83;;
47523;SDS011;33253;42.144;25.884;2022-11-15T16:07:41;48.92;;;35.97;;
47523;SDS011;33253;42.144;25.884;2022-11-15T16:12:47;55.47;;;39.05;;
47523;SDS011;33253;42.144;25.884;2022-11-15T16:15:13;50.75;;;37.58;;
47523;SDS011;33253;42.144;25.884;2022-11-15T16:17:56;58.03;;;41.78;;
47523;SDS011;33253;42.144;25.884;2022-11-15T16:22:59;54.03;;;40.28;;
47523;SDS011;33253;42.144;25.884;2022-11-15T16:25:26;55.42;;;40.25;;
47523;SDS011;33253;42.144;25.884;2022-11-15T16:27:51;56.95;;;40.70;;
47523;SDS011;33253;42.144;25.884;2022-11-15T16:30:18;58.25;;;42.10;;
47523;SDS011;33253;42.144;25.884;2022-11-15T16:32:45;57.92;;;40.53;;
47523;SDS011;33253;42.144;25.884;2022-11-15T16:35:14;57.90;;;42.50;;
47523;SDS011;33253;42.144;25.884;2022-11-15T16:42:58;60.25;;;40.55;;
47523;SDS011;33253;42.144;25.884;2022-11-15T16:45:24;61.00;;;41.63;;
47523;SDS011;33253;42.144;25.884;2022-11-15T16:47:53;58.20;;;42.33;;
47523;SDS011;33253;42.144;25.884;2022-11-15T16:50:22;61.58;;;41.67;;
47523;SDS011;33253;42.144;25.884;2022-11-15T16:52:54;63.08;;;44.75;;
47523;SDS011;33253;42.144;25.884;2022-11-15T16:55:22;67.57;;;45.78;;
47523;SDS011;33253;42.144;25.884;2022-11-15T16:57:49;70.05;;;45.90;;
47523;SDS011;33253;42.144;25.884;2022-11-15T17:00:16;64.40;;;42.25;;
47523;SDS011;33253;42.144;25.884;2022-11-15T17:02:43;64.47;;;44.47;;
47523;SDS011;33253;42.144;25.884;2022-11-15T17:05:10;63.88;;;42.85;;
47523;SDS011;33253;42.144;25.884;2022-11-15T17:07:36;64.28;;;44.00;;
47523;SDS011;33253;42.144;25.884;2022-11-15T17:10:03;62.45;;;44.45;;
47523;SDS011;33253;42.144;25.884;2022-11-15T17:12:28;68.95;;;45.10;;
47523;SDS011;33253;42.144;25.884;2022-11-15T17:14:55;64.22;;;44.08;;
47523;SDS011;33253;42.144;25.884;2022-11-15T17:17:20;66.90;;;45.90;;
47523;SDS011;33253;42.144;25.884;2022-11-15T17:19:46;78.72;;;50.53;;
47523;SDS011;33253;42.144;25.884;2022-11-15T17:22:11;88.18;;;55.90;;
47523;SDS011;33253;42.144;25.884;2022-11-15T17:24:37;79.65;;;54.17;;
47523;SDS011;33253;42.144;25.884;2022-11-15T17:27:02;77.68;;;50.42;;
47523;SDS011;33253;42.144;25.884;2022-11-15T17:29:28;81.78;;;51.15;;
47523;SDS011;33253;42.144;25.884;2022-11-15T17:31:54;75.05;;;50.83;;
47523;SDS011;33253;42.144;25.884;2022-11-15T17:34:21;79.95;;;52.28;;
47523;SDS011;33253;42.144;25.884;2022-11-15T17:36:47;84.57;;;52.70;;
47523;SDS011;33253;42.144;25.884;2022-11-15T17:39:13;84.85;;;51.97;;
47523;SDS011;33253;42.144;25.884;2022-11-15T17:41:39;70.55;;;45.88;;
47523;SDS011;33253;42.144;25.884;2022-11-15T17:44:04;73.20;;;48.33;;
47523;SDS011;33253;42.144;25.884;2022-11-15T17:46:30;81.63;;;49.65;;
47523;SDS011;33253;42.144;25.884;2022-11-15T17:49:16;65.82;;;44.63;;
47523;SDS011;33253;42.144;25.884;2022-11-15T17:51:41;70.50;;;48.63;;
47523;SDS011;33253;42.144;25.884;2022-11-15T17:54:09;57.70;;;42.20;;
47523;SDS011;33253;42.144;25.884;2022-11-15T17:56:37;56.63;;;41.35;;
47523;SDS011;33253;42.144;25.884;2022-11-15T17:59:04;64.60;;;43.08;;
47523;SDS011;33253;42.144;25.884;2022-11-15T18:01:30;78.05;;;47.63;;
47523;SDS011;33253;42.144;25.884;2022-11-15T18:03:57;82.18;;;51.50;;
47523;SDS011;33253;42.144;25.884;2022-11-15T18:06:26;77.85;;;47.90;;
47523;SDS011;33253;42.144;25.884;2022-11-15T18:08:54;66.95;;;43.90;;
47523;SDS011;33253;42.144;25.884;2022-11-15T18:11:21;55.17;;;39.33;;
47523;SDS011;33253;42.144;25.884;2022-11-15T18:13:49;51.40;;;37.45;;
47523;SDS011;33253;42.144;25.884;2022-11-15T18:16:17;53.42;;;37.08;;
47523;SDS011;33253;42.144;25.884;2022-11-15T18:18:44;58.53;;;40.33;;
47523;SDS011;33253;42.144;25.884;2022-11-15T18:21:14;53.60;;;37.53;;
47523;SDS011;33253;42.144;25.884;2022-11-15T18:23:46;55.22;;;39.05;;
47523;SDS011;33253;42.144;25.884;2022-11-15T18:26:13;51.90;;;37.65;;
47523;SDS011;33253;42.144;25.884;2022-11-15T18:28:42;49.30;;;37.45;;
47523;SDS011;33253;42.144;25.884;2022-11-15T18:31:16;48.85;;;34.10;;
47523;SDS011;33253;42.144;25.884;2022-11-15T18:33:47;45.20;;;34.05;;
47523;SDS011;33253;42.144;25.884;2022-11-15T18:36:14;47.03;;;34.95;;
47523;SDS011;33253;42.144;25.884;2022-11-15T18:38:41;45.63;;;33.42;;
47523;SDS011;33253;42.144;25.884;2022-11-15T18:41:15;48.47;;;33.35;;
47523;SDS011;33253;42.144;25.884;2022-11-15T18:43:43;48.17;;;34.22;;
47523;SDS011;33253;42.144;25.884;2022-11-15T18:46:10;45.30;;;32.15;;
47523;SDS011;33253;42.144;25.884;2022-11-15T18:48:37;51.50;;;34.20;;
47523;SDS011;33253;42.144;25.884;2022-11-15T18:51:08;46.22;;;31.63;;
47523;SDS011;33253;42.144;25.884;2022-11-15T18:53:35;45.58;;;32.63;;
47523;SDS011;33253;42.144;25.884;2022-11-15T18:56:02;48.17;;;33.53;;
47523;SDS011;33253;42.144;25.884;2022-11-15T18:58:30;48.42;;;33.47;;
47523;SDS011;33253;42.144;25.884;2022-11-15T19:01:00;46.63;;;32.03;;
47523;SDS011;33253;42.144;25.884;2022-11-15T19:03:33;48.95;;;32.72;;
47523;SDS011;33253;42.144;25.884;2022-11-15T19:06:04;50.88;;;34.47;;
47523;SDS011;33253;42.144;25.884;2022-11-15T19:08:38;51.05;;;33.58;;
47523;SDS011;33253;42.144;25.884;2022-11-15T19:13:36;50.30;;;33.60;;
47523;SDS011;33253;42.144;25.884;2022-11-15T19:16:02;59.33;;;35.45;;
47523;SDS011;33253;42.144;25.884;2022-11-15T19:18:29;56.35;;;37.50;;
47523;SDS011;33253;42.144;25.884;2022-11-15T19:20:55;52.33;;;35.60;;
47523;SDS011;33253;42.144;25.884;2022-11-15T19:23:26;52.55;;;35.00;;
47523;SDS011;33253;42.144;25.884;2022-11-15T19:25:53;48.97;;;33.45;;
47523;SDS011;33253;42.144;25.884;2022-11-15T19:28:22;51.20;;;34.08;;
47523;SDS011;33253;42.144;25.884;2022-11-15T19:30:48;50.78;;;35.10;;
47523;SDS011;33253;42.144;25.884;2022-11-15T19:33:14;49.30;;;34.38;;
47523;SDS011;33253;42.144;25.884;2022-11-15T19:35:39;50.55;;;35.47;;
47523;SDS011;33253;42.144;25.884;2022-11-15T19:38:06;53.05;;;34.58;;
47523;SDS011;33253;42.144;25.884;2022-11-15T19:40:32;51.45;;;34.75;;
47523;SDS011;33253;42.144;25.884;2022-11-15T19:43:17;59.53;;;34.10;;
47523;SDS011;33253;42.144;25.884;2022-11-15T19:45:43;51.45;;;34.03;;
47523;SDS011;33253;42.144;25.884;2022-11-15T19:48:16;53.40;;;36.60;;
47523;SDS011;33253;42.144;25.884;2022-11-15T19:50:42;49.42;;;34.15;;